createdAt,value
2022-08-20T00:00:02.370Z,98071.59
2022-08-20T00:02:09.977Z,98076.44
2022-08-20T00:04:15.003Z,98072.13
2022-08-20T00:06:26.052Z,98076.31
2022-08-20T00:08:32.153Z,98078.38
2022-08-20T00:10:39.977Z,98079.09
2022-08-20T00:12:47.594Z,98074.50
2022-08-20T00:14:52.615Z,98074.19
2022-08-20T00:16:57.551Z,98069.72
2022-08-20T00:19:06.778Z,98072.63
2022-08-20T00:21:18.916Z,98067.88
2022-08-20T00:23:27.782Z,98064.97
2022-08-20T00:25:32.957Z,98066.22
2022-08-20T00:27:37.967Z,98065.50
2022-08-20T00:29:42.785Z,98060.91
2022-08-20T00:31:47.695Z,98059.94
2022-08-20T00:33:53.464Z,98056.31
2022-08-20T00:36:06.542Z,98063.16
2022-08-20T00:38:11.650Z,98059.56
2022-08-20T00:40:24.516Z,98052.31
2022-08-20T00:42:29.507Z,98056.78
2022-08-20T00:44:34.590Z,98064.00
2022-08-20T00:46:39.737Z,98059.94
2022-08-20T00:48:47.872Z,98073.16
2022-08-20T00:50:53.030Z,98066.91
2022-08-20T00:52:58.928Z,98066.31
2022-08-20T00:55:05.917Z,98074.25
2022-08-20T00:57:19.877Z,98066.22
2022-08-20T00:59:28.419Z,98074.00
2022-08-20T01:01:34.179Z,98078.44
2022-08-20T01:03:58.330Z,98076.25
2022-08-20T01:06:03.609Z,98085.13
2022-08-20T01:08:09.422Z,98079.16
2022-08-20T01:10:19.388Z,98076.78
2022-08-20T01:12:28.033Z,98077.88
2022-08-20T01:14:36.684Z,98081.72
2022-08-20T01:16:41.677Z,98075.34
2022-08-20T01:18:48.405Z,98073.78
2022-08-20T01:20:57.184Z,98079.22
2022-08-20T01:23:20.482Z,98079.34
2022-08-20T01:25:34.355Z,98073.72
2022-08-20T01:27:43.010Z,98076.38
2022-08-20T01:29:49.125Z,98078.28
2022-08-20T01:32:01.216Z,98072.06
2022-08-20T01:34:08.388Z,98077.47
2022-08-20T01:36:14.607Z,98067.88
2022-08-20T01:38:20.240Z,98071.50
2022-08-20T01:40:46.471Z,98068.97
2022-08-20T01:42:59.479Z,98070.31
2022-08-20T01:45:04.794Z,98063.22
2022-08-20T01:47:16.946Z,98068.50
2022-08-20T01:49:26.323Z,98059.75
2022-08-20T01:51:33.096Z,98071.72
2022-08-20T01:53:41.763Z,98064.25
2022-08-20T01:55:46.747Z,98061.34
2022-08-20T01:57:54.468Z,98073.38
2022-08-20T01:59:59.364Z,98066.13
2022-08-20T02:02:05.518Z,98068.75
2022-08-20T02:04:15.178Z,98070.47
2022-08-20T02:06:25.055Z,98076.56
2022-08-20T02:08:31.181Z,98075.75
2022-08-20T02:10:37.287Z,98077.56
2022-08-20T02:12:42.435Z,98074.78
2022-08-20T02:14:53.925Z,98073.78
2022-08-20T02:17:00.627Z,98078.97
2022-08-20T02:19:09.515Z,98087.88
2022-08-20T02:21:14.439Z,98083.69
2022-08-20T02:23:19.272Z,98092.19
2022-08-20T02:25:27.153Z,98081.22
2022-08-20T02:27:33.447Z,98083.16
2022-08-20T02:29:39.755Z,98079.69
2022-08-20T02:32:24.405Z,98075.34
2022-08-20T02:34:22.864Z,98074.66
2022-08-20T02:36:28.352Z,98072.97
2022-08-20T02:38:35.029Z,98067.94
2022-08-20T02:40:40.675Z,98077.81
2022-08-20T02:42:47.892Z,98070.56
2022-08-20T02:44:54.154Z,98071.41
2022-08-20T02:47:01.749Z,98081.88
2022-08-20T02:49:07.140Z,98072.13
2022-08-20T02:51:12.543Z,98067.81
2022-08-20T02:53:17.867Z,98063.47
2022-08-20T02:55:27.032Z,98070.47
2022-08-20T02:57:33.328Z,98062.53
2022-08-20T02:59:38.930Z,98069.75
2022-08-20T03:01:43.799Z,98061.09
2022-08-20T03:03:51.303Z,98059.44
2022-08-20T03:05:58.660Z,98060.41
2022-08-20T03:08:03.544Z,98066.53
2022-08-20T03:10:09.361Z,98065.53
2022-08-20T03:12:14.761Z,98066.38
2022-08-20T03:14:19.822Z,98070.72
2022-08-20T03:16:24.634Z,98065.53
2022-08-20T03:18:32.407Z,98066.25
2022-08-20T03:20:40.145Z,98064.59
2022-08-20T03:22:45.902Z,98068.75
2022-08-20T03:24:50.745Z,98064.59
2022-08-20T03:26:58.819Z,98065.44
2022-08-20T03:29:03.688Z,98064.84
2022-08-20T03:31:08.804Z,98057.16
2022-08-20T03:33:13.674Z,98059.81
2022-08-20T03:35:20.918Z,98069.53
2022-08-20T03:37:28.353Z,98071.91
2022-08-20T03:39:33.379Z,98061.09
2022-08-20T03:41:38.651Z,98060.84
2022-08-20T03:43:43.642Z,98066.13
2022-08-20T03:45:49.622Z,98062.66
2022-08-20T03:47:55.400Z,98059.75
2022-08-20T03:50:01.749Z,98067.81
2022-08-20T03:52:07.890Z,98066.13
2022-08-20T03:54:20.351Z,98066.72
2022-08-20T03:56:25.245Z,98069.47
2022-08-20T03:58:35.415Z,98069.47
2022-08-20T04:00:44.529Z,98078.50
2022-08-20T04:02:49.577Z,98076.00
2022-08-20T04:04:55.186Z,98084.03
2022-08-20T04:07:00.027Z,98083.31
2022-08-20T04:09:04.958Z,98079.75
2022-08-20T04:11:13.515Z,98084.75
2022-08-20T04:13:20.845Z,98083.94
2022-08-20T04:15:28.485Z,98086.69
2022-08-20T04:17:33.574Z,98091.84
2022-08-20T04:19:39.006Z,98085.84
2022-08-20T04:21:43.863Z,98102.53
2022-08-20T04:23:48.705Z,98101.72
2022-08-20T04:25:56.646Z,98098.22
2022-08-20T04:28:06.229Z,98104.47
2022-08-20T04:30:14.386Z,98114.91
2022-08-20T04:32:19.318Z,98115.91
2022-08-20T04:34:24.363Z,98114.09
2022-08-20T04:36:29.535Z,98112.66
2022-08-20T04:38:50.467Z,98116.41
2022-08-20T04:40:58.340Z,98117.94
2022-08-20T04:43:06.829Z,98120.22
2022-08-20T04:45:12.609Z,98116.59
2022-08-20T04:47:24.674Z,98120.53
2022-08-20T04:49:40.890Z,98115.63
2022-08-20T04:51:45.773Z,98111.91
2022-08-20T04:53:51.930Z,98110.22
2022-08-20T04:55:58.904Z,98121.50
2022-08-20T04:58:10.839Z,98126.66
2022-08-20T05:00:19.516Z,98127.38
2022-08-20T05:02:25.373Z,98122.91
2022-08-20T05:04:30.217Z,98113.88
2022-08-20T05:06:35.557Z,98121.44
2022-08-20T05:08:41.313Z,98120.47
2022-08-20T05:10:47.034Z,98121.19
2022-08-20T05:12:56.498Z,98122.13
2022-08-20T05:15:04.943Z,98128.41
2022-08-20T05:17:10.156Z,98123.13
2022-08-20T05:19:16.003Z,98124.19
2022-08-20T05:21:21.107Z,98123.38
2022-08-20T05:23:25.699Z,98127.94
2022-08-20T05:25:32.080Z,98124.59
2022-08-20T05:27:37.033Z,98123.53
2022-08-20T05:29:42.201Z,98127.69
2022-08-20T05:31:49.353Z,98120.88
2022-08-20T05:33:56.954Z,98128.81
2022-08-20T05:36:02.418Z,98124.19
2022-08-20T05:38:07.845Z,98129.22
2022-08-20T05:40:16.478Z,98135.97
2022-08-20T05:42:21.494Z,98130.53
2022-08-20T05:44:26.371Z,98132.22
2022-08-20T05:46:32.068Z,98129.31
2022-08-20T05:48:39.689Z,98125.44
2022-08-20T05:50:46.885Z,98133.38
2022-08-20T05:52:51.712Z,98133.00
2022-08-20T05:54:56.828Z,98138.03
2022-08-20T05:57:01.441Z,98139.84
2022-08-20T05:59:08.607Z,98139.59
2022-08-20T06:01:13.521Z,98139.44
2022-08-20T06:03:31.106Z,98143.38
2022-08-20T06:05:38.685Z,98144.09
2022-08-20T06:07:43.929Z,98150.81
2022-08-20T06:09:48.809Z,98150.28
2022-08-20T06:11:53.559Z,98148.88
2022-08-20T06:14:03.987Z,98143.03
2022-08-20T06:16:09.310Z,98154.09
2022-08-20T06:18:28.451Z,98156.34
2022-08-20T06:20:33.827Z,98148.53
2022-08-20T06:22:41.389Z,98151.66
2022-08-20T06:24:46.516Z,98153.38
2022-08-20T06:26:51.204Z,98160.38
2022-08-20T06:28:56.274Z,98159.81
2022-08-20T06:31:01.121Z,98165.41
2022-08-20T06:33:06.260Z,98158.09
2022-08-20T06:35:11.700Z,98164.59
2022-08-20T06:37:18.769Z,98169.34
2022-08-20T06:39:27.055Z,98159.59
2022-08-20T06:41:37.049Z,98162.22
2022-08-20T06:43:42.077Z,98155.66
2022-08-20T06:45:46.997Z,98166.00
2022-08-20T06:47:51.923Z,98163.38
2022-08-20T06:49:56.851Z,98159.47
2022-08-20T06:52:01.702Z,98159.41
2022-08-20T06:54:07.238Z,98163.31
2022-08-20T06:56:14.633Z,98163.38
2022-08-20T06:58:36.238Z,98157.81
2022-08-20T07:00:44.656Z,98166.72
2022-08-20T07:02:49.772Z,98168.41
2022-08-20T07:04:55.521Z,98160.28
2022-08-20T07:07:00.454Z,98171.41
2022-08-20T07:09:05.369Z,98173.34
2022-08-20T07:11:10.385Z,98168.50
2022-08-20T07:13:18.358Z,98169.78
2022-08-20T07:15:25.943Z,98164.22
2022-08-20T07:17:30.906Z,98174.09
2022-08-20T07:19:36.077Z,98169.69
2022-08-20T07:21:40.733Z,98166.25
2022-08-20T07:23:46.019Z,98166.94
2022-08-20T07:25:51.358Z,98162.84
2022-08-20T07:27:56.344Z,98163.44
2022-08-20T07:30:16.198Z,98152.50
2022-08-20T07:32:39.606Z,98158.63
2022-08-20T07:34:46.583Z,98157.69
2022-08-20T07:36:53.224Z,98164.84
2022-08-20T07:39:05.865Z,98155.50
2022-08-20T07:41:15.004Z,98164.28
2022-08-20T07:43:21.602Z,98168.09
2022-08-20T07:45:29.872Z,98171.38
2022-08-20T07:47:36.256Z,98166.84
2022-08-20T07:49:41.757Z,98174.78
2022-08-20T07:51:47.142Z,98175.84
2022-08-20T07:53:54.302Z,98186.47
2022-08-20T07:56:00.307Z,98177.56
2022-08-20T07:58:13.487Z,98177.84
2022-08-20T08:00:21.290Z,98183.53
2022-08-20T08:02:29.259Z,98183.28
2022-08-20T08:04:34.730Z,98194.75
2022-08-20T08:06:45.508Z,98192.72
2022-08-20T08:08:50.818Z,98186.28
2022-08-20T08:11:00.628Z,98185.16
2022-08-20T08:13:08.563Z,98194.66
2022-08-20T08:15:17.745Z,98190.22
2022-08-20T08:17:22.726Z,98192.31
2022-08-20T08:19:38.945Z,98188.69
2022-08-20T08:21:44.481Z,98184.66
2022-08-20T08:23:50.321Z,98192.03
2022-08-20T08:25:56.292Z,98193.16
2022-08-20T08:28:03.333Z,98189.41
2022-08-20T08:30:10.153Z,98198.06
2022-08-20T08:32:15.543Z,98195.53
2022-08-20T08:34:20.159Z,98199.31
2022-08-20T08:36:27.940Z,98201.25
2022-08-20T08:38:34.429Z,98202.50
2022-08-20T08:40:39.321Z,98202.66
2022-08-20T08:42:58.377Z,98198.63
2022-08-20T08:45:04.747Z,98204.38
2022-08-20T08:47:18.438Z,98208.81
2022-08-20T08:49:37.566Z,98212.16
2022-08-20T08:51:50.264Z,98209.22
2022-08-20T08:53:57.306Z,98213.38
2022-08-20T08:56:02.953Z,98212.13
2022-08-20T08:58:17.353Z,98211.94
2022-08-20T09:00:24.992Z,98209.34
2022-08-20T09:02:31.592Z,98215.19
2022-08-20T09:04:40.573Z,98219.66
2022-08-20T09:06:52.041Z,98225.22
2022-08-20T09:09:01.138Z,98226.47
2022-08-20T09:11:07.627Z,98220.59
2022-08-20T09:13:12.444Z,98219.72
2022-08-20T09:15:17.349Z,98216.44
2022-08-20T09:17:24.130Z,98212.50
2022-08-20T09:19:29.076Z,98222.34
2022-08-20T09:21:33.977Z,98213.97
2022-08-20T09:23:41.503Z,98216.63
2022-08-20T09:25:46.415Z,98215.09
2022-08-20T09:27:51.054Z,98218.50
2022-08-20T09:29:56.106Z,98221.88
2022-08-20T09:32:07.793Z,98228.50
2022-08-20T09:34:14.109Z,98225.53
2022-08-20T09:36:29.037Z,98221.25
2022-08-20T09:38:37.576Z,98225.19
2022-08-20T09:40:45.092Z,98221.94
2022-08-20T09:42:50.160Z,98222.38
2022-08-20T09:44:55.628Z,98223.06
2022-08-20T09:47:00.499Z,98218.25
2022-08-20T09:49:05.401Z,98216.00
2022-08-20T09:51:13.812Z,98217.34
2022-08-20T09:53:19.048Z,98216.44
2022-08-20T09:55:27.582Z,98223.03
2022-08-20T09:57:35.330Z,98224.00
2022-08-20T09:59:41.914Z,98221.06
2022-08-20T10:01:47.013Z,98218.41
2022-08-20T10:03:52.718Z,98222.81
2022-08-20T10:05:57.608Z,98215.63
2022-08-20T10:08:02.537Z,98214.50
2022-08-20T10:10:08.052Z,98214.91
2022-08-20T10:12:12.937Z,98211.13
2022-08-20T10:14:20.488Z,98216.16
2022-08-20T10:16:25.330Z,98221.75
2022-08-20T10:18:30.284Z,98213.88
2022-08-20T10:20:35.743Z,98207.22
2022-08-20T10:22:40.971Z,98211.06
2022-08-20T10:24:45.991Z,98207.25
2022-08-20T10:26:52.258Z,98215.94
2022-08-20T10:28:57.111Z,98219.00
2022-08-20T10:31:04.795Z,98211.72
2022-08-20T10:33:09.680Z,98210.41
2022-08-20T10:35:14.556Z,98214.53
2022-08-20T10:37:21.492Z,98208.47
2022-08-20T10:39:26.512Z,98210.66
2022-08-20T10:41:39.051Z,98213.97
2022-08-20T10:43:44.232Z,98211.88
2022-08-20T10:45:48.808Z,98209.91
2022-08-20T10:47:56.354Z,98209.22
2022-08-20T10:50:03.252Z,98208.69
2022-08-20T10:52:08.593Z,98207.41
2022-08-20T10:54:13.560Z,98203.53
2022-08-20T10:56:18.388Z,98200.88
2022-08-20T10:58:24.141Z,98204.91
2022-08-20T11:00:29.357Z,98201.16
2022-08-20T11:02:34.158Z,98201.84
2022-08-20T11:04:43.634Z,98205.69
2022-08-20T11:06:48.505Z,98195.31
2022-08-20T11:08:53.136Z,98200.38
2022-08-20T11:10:57.924Z,98205.75
2022-08-20T11:13:03.088Z,98201.78
2022-08-20T11:15:09.242Z,98205.69
2022-08-20T11:17:15.126Z,98198.03
2022-08-20T11:19:19.937Z,98196.53
2022-08-20T11:21:27.424Z,98199.66
2022-08-20T11:23:32.237Z,98195.63
2022-08-20T11:25:38.219Z,98193.69
2022-08-20T11:27:46.514Z,98195.03
2022-08-20T11:29:51.655Z,98194.53
2022-08-20T11:31:56.531Z,98189.56
2022-08-20T11:34:01.105Z,98185.06
2022-08-20T11:36:06.336Z,98184.41
2022-08-20T11:38:14.099Z,98180.38
2022-08-20T11:40:19.091Z,98178.56
2022-08-20T11:42:23.972Z,98170.41
2022-08-20T11:44:28.794Z,98174.09
2022-08-20T11:46:33.685Z,98168.53
2022-08-20T11:48:38.583Z,98169.00
2022-08-20T11:50:43.653Z,98176.88
2022-08-20T11:52:48.259Z,98175.88
2022-08-20T11:54:55.751Z,98173.72
2022-08-20T11:57:01.116Z,98174.41
2022-08-20T11:59:05.995Z,98180.44
2022-08-20T12:01:10.874Z,98177.25
2022-08-20T12:03:15.553Z,98170.06
2022-08-20T12:05:21.247Z,98163.38
2022-08-20T12:07:28.312Z,98163.06
2022-08-20T12:09:33.139Z,98168.41
2022-08-20T12:11:40.623Z,98163.56
2022-08-20T12:13:47.323Z,98167.75
2022-08-20T12:15:53.481Z,98168.34
2022-08-20T12:17:58.965Z,98171.47
2022-08-20T12:20:07.250Z,98171.22
2022-08-20T12:22:23.719Z,98177.00
2022-08-20T12:24:29.961Z,98180.47
2022-08-20T12:26:34.772Z,98176.06
2022-08-20T12:28:42.643Z,98171.38
2022-08-20T12:30:47.479Z,98168.69
2022-08-20T12:32:53.076Z,98172.16
2022-08-20T12:34:58.355Z,98171.13
2022-08-20T12:37:05.276Z,98172.91
2022-08-20T12:39:10.276Z,98180.59
2022-08-20T12:41:14.923Z,98182.75
2022-08-20T12:43:24.660Z,98181.53
2022-08-20T12:45:33.009Z,98179.09
2022-08-20T12:47:39.772Z,98182.88
2022-08-20T12:49:46.409Z,98178.53
2022-08-20T12:51:51.321Z,98187.22
2022-08-20T12:53:56.295Z,98189.47
2022-08-20T12:56:02.590Z,98202.25
2022-08-20T12:58:10.494Z,98205.97
2022-08-20T13:00:20.395Z,98206.78
2022-08-20T13:02:29.031Z,98201.91
2022-08-20T13:04:33.856Z,98195.59
2022-08-20T13:06:38.869Z,98200.50
2022-08-20T13:08:43.754Z,98202.91
2022-08-20T13:10:48.562Z,98201.72
2022-08-20T13:12:54.236Z,98195.44
2022-08-20T13:14:59.120Z,98198.63
2022-08-20T13:17:05.062Z,98204.69
2022-08-20T13:19:14.155Z,98201.59
2022-08-20T13:21:23.903Z,98197.69
2022-08-20T13:23:29.022Z,98200.66
2022-08-20T13:25:34.771Z,98194.44
2022-08-20T13:27:40.616Z,98190.19
2022-08-20T13:29:50.949Z,98185.94
2022-08-20T13:31:57.951Z,98184.13
2022-08-20T13:34:02.923Z,98176.97
2022-08-20T13:36:10.501Z,98172.50
2022-08-20T13:38:15.860Z,98173.50
2022-08-20T13:40:21.396Z,98161.03
2022-08-20T13:42:26.586Z,98165.28
2022-08-20T13:44:33.021Z,98160.81
2022-08-20T13:46:38.233Z,98157.16
2022-08-20T13:48:43.140Z,98158.84
2022-08-20T13:50:48.061Z,98158.06
2022-08-20T13:52:56.330Z,98150.53
2022-08-20T13:55:01.765Z,98153.66
2022-08-20T13:57:13.705Z,98150.25
2022-08-20T13:59:18.552Z,98161.50
2022-08-20T14:01:23.266Z,98161.28
2022-08-20T14:03:28.113Z,98157.44
2022-08-20T14:05:34.117Z,98153.84
2022-08-20T14:07:39.228Z,98151.19
2022-08-20T14:09:50.008Z,98156.09
2022-08-20T14:11:54.959Z,98157.09
2022-08-20T14:13:59.810Z,98163.56
2022-08-20T14:16:04.635Z,98162.97
2022-08-20T14:18:10.173Z,98169.91
2022-08-20T14:20:18.543Z,98164.34
2022-08-20T14:22:23.657Z,98164.03
2022-08-20T14:24:28.558Z,98162.97
2022-08-20T14:26:36.041Z,98158.69
2022-08-20T14:28:40.867Z,98171.41
2022-08-20T14:30:46.559Z,98171.94
2022-08-20T14:32:58.115Z,98171.94
2022-08-20T14:35:03.053Z,98169.50
2022-08-20T14:37:19.265Z,98175.31
2022-08-20T14:39:26.657Z,98177.88
2022-08-20T14:41:31.470Z,98168.16
2022-08-20T14:43:38.924Z,98176.34
2022-08-20T14:45:44.269Z,98163.59
2022-08-20T14:47:53.863Z,98169.91
2022-08-20T14:50:04.759Z,98172.50
2022-08-20T14:52:09.884Z,98173.22
2022-08-20T14:54:14.817Z,98167.31
2022-08-20T14:56:20.002Z,98171.38
2022-08-20T14:58:24.834Z,98173.63
2022-08-20T15:00:34.766Z,98178.97
2022-08-20T15:02:40.487Z,98184.94
2022-08-20T15:04:52.265Z,98190.28
2022-08-20T15:07:02.191Z,98182.28
2022-08-20T15:09:15.937Z,98181.34
2022-08-20T15:11:20.781Z,98178.88
2022-08-20T15:13:25.609Z,98184.16
2022-08-20T15:15:31.287Z,98180.34
2022-08-20T15:17:38.766Z,98173.31
2022-08-20T15:19:43.772Z,98175.47
2022-08-20T15:21:48.704Z,98177.44
2022-08-20T15:23:53.238Z,98170.13
2022-08-20T15:25:58.160Z,98165.91
2022-08-20T15:28:04.811Z,98169.66
2022-08-20T15:30:13.124Z,98165.44
2022-08-20T15:32:18.306Z,98161.78
2022-08-20T15:34:25.783Z,98157.94
2022-08-20T15:36:30.624Z,98162.38
2022-08-20T15:38:35.785Z,98162.78
2022-08-20T15:40:40.661Z,98163.34
2022-08-20T15:42:46.546Z,98163.19
2022-08-20T15:44:52.357Z,98159.56
2022-08-20T15:46:57.261Z,98160.25
2022-08-20T15:49:01.957Z,98149.44
2022-08-20T15:51:23.706Z,98163.63
2022-08-20T15:53:36.387Z,98158.94
2022-08-20T15:56:00.414Z,98155.59
2022-08-20T15:58:16.995Z,98161.22
2022-08-20T16:00:24.334Z,98166.03
2022-08-20T16:02:55.161Z,98169.66
2022-08-20T16:05:17.280Z,98184.38
2022-08-20T16:07:32.205Z,98181.78
2022-08-20T16:09:56.432Z,98189.09
2022-08-20T16:12:08.682Z,98179.78
2022-08-20T16:14:18.729Z,98178.25
2022-08-20T16:16:28.518Z,98174.34
2022-08-20T16:18:37.601Z,98178.84
2022-08-20T16:20:47.970Z,98172.00
2022-08-20T16:22:55.735Z,98183.44
2022-08-20T16:25:01.698Z,98182.72
2022-08-20T16:27:17.281Z,98179.34
2022-08-20T16:29:22.781Z,98178.53
2022-08-20T16:31:33.523Z,98180.06
2022-08-20T16:33:52.882Z,98187.34
2022-08-20T16:36:02.221Z,98187.63
2022-08-20T16:38:21.360Z,98191.00
2022-08-20T16:40:30.220Z,98193.91
2022-08-20T16:42:41.244Z,98193.75
2022-08-20T16:44:51.111Z,98195.13
2022-08-20T16:47:00.676Z,98202.63
2022-08-20T16:49:18.593Z,98198.72
2022-08-20T16:51:28.229Z,98207.53
2022-08-20T16:53:35.956Z,98213.34
2022-08-20T16:55:42.119Z,98207.75
2022-08-20T16:57:47.873Z,98203.81
2022-08-20T17:00:13.379Z,98204.19
2022-08-20T17:02:22.451Z,98208.41
2022-08-20T17:04:27.284Z,98211.88
2022-08-20T17:06:38.304Z,98212.88
2022-08-20T17:08:51.624Z,98213.28
2022-08-20T17:11:01.374Z,98223.59
2022-08-20T17:13:22.225Z,98222.31
2022-08-20T17:15:31.284Z,98222.22
2022-08-20T17:17:38.445Z,98225.53
2022-08-20T17:19:43.315Z,98226.94
2022-08-20T17:21:50.218Z,98221.53
2022-08-20T17:24:01.671Z,98223.47
2022-08-20T17:26:19.523Z,98224.13
2022-08-20T17:28:26.037Z,98221.34
2022-08-20T17:30:39.646Z,98232.19
2022-08-20T17:32:57.419Z,98237.09
2022-08-20T17:35:05.422Z,98241.94
2022-08-20T17:37:13.563Z,98243.47
2022-08-20T17:39:23.115Z,98239.44
2022-08-20T17:41:32.272Z,98246.34
2022-08-20T17:43:43.398Z,98245.66
2022-08-20T17:45:48.970Z,98244.56
2022-08-20T17:47:54.603Z,98250.50
2022-08-20T17:50:04.381Z,98255.28
2022-08-20T17:52:18.987Z,98249.72
2022-08-20T17:54:35.445Z,98254.19
2022-08-20T17:56:43.690Z,98261.91
2022-08-20T17:58:54.862Z,98260.25
2022-08-20T18:01:02.255Z,98253.25
2022-08-20T18:03:17.599Z,98254.94
2022-08-20T18:05:24.577Z,98251.84
2022-08-20T18:07:33.967Z,98253.13
2022-08-20T18:09:46.663Z,98248.94
2022-08-20T18:11:59.034Z,98249.09
2022-08-20T18:14:29.532Z,98251.63
2022-08-20T18:16:45.641Z,98247.19
2022-08-20T18:18:59.316Z,98245.84
2022-08-20T18:21:34.406Z,98241.78
2022-08-20T18:23:41.507Z,98251.56
2022-08-20T18:26:00.683Z,98246.25
2022-08-20T18:28:11.485Z,98250.31
2022-08-20T18:30:20.293Z,98244.47
2022-08-20T18:32:34.271Z,98244.88
2022-08-20T18:34:42.192Z,98248.13
2022-08-20T18:36:57.179Z,98249.28
2022-08-20T18:39:09.623Z,98252.91
2022-08-20T18:41:31.878Z,98253.72
2022-08-20T18:43:36.741Z,98256.38
2022-08-20T18:45:41.677Z,98250.41
2022-08-20T18:47:49.152Z,98254.72
2022-08-20T18:50:15.773Z,98249.41
2022-08-20T18:52:30.358Z,98255.56
2022-08-20T18:54:35.905Z,98258.06
2022-08-20T18:56:45.599Z,98251.94
2022-08-20T18:59:00.539Z,98262.00
2022-08-20T19:01:13.239Z,98256.41
2022-08-20T19:03:23.135Z,98256.53
2022-08-20T19:05:31.934Z,98264.50
2022-08-20T19:07:43.155Z,98268.97
2022-08-20T19:10:27.704Z,98259.34
2022-08-20T19:13:08.724Z,98263.97
2022-08-20T19:15:19.083Z,98269.84
2022-08-20T19:17:33.706Z,98263.00
2022-08-20T19:19:39.421Z,98263.28
2022-08-20T19:21:44.996Z,98262.84
2022-08-20T19:23:55.079Z,98268.44
2022-08-20T19:26:02.985Z,98271.38
2022-08-20T19:28:24.055Z,98274.31
2022-08-20T19:30:35.329Z,98262.44
2022-08-20T19:32:46.309Z,98266.50
2022-08-20T19:34:54.850Z,98269.69
2022-08-20T19:37:07.778Z,98262.84
2022-08-20T19:39:18.895Z,98258.81
2022-08-20T19:41:31.483Z,98271.66
2022-08-20T19:43:45.239Z,98266.34
2022-08-20T19:45:52.989Z,98265.34
2022-08-20T19:48:08.232Z,98258.81
2022-08-20T19:50:23.942Z,98262.16
2022-08-20T19:52:36.035Z,98264.41
2022-08-20T19:54:49.838Z,98266.06
2022-08-20T19:56:58.530Z,98260.75
2022-08-20T19:59:09.319Z,98263.25
2022-08-20T20:01:19.807Z,98257.81
2022-08-20T20:03:28.715Z,98264.81
2022-08-20T20:05:33.909Z,98259.50
2022-08-20T20:07:42.098Z,98262.16
2022-08-20T20:09:56.246Z,98266.50
2022-08-20T20:12:02.949Z,98263.13
2022-08-20T20:14:14.558Z,98260.47
2022-08-20T20:16:22.552Z,98268.72
2022-08-20T20:18:30.727Z,98270.66
2022-08-20T20:20:38.567Z,98271.66
2022-08-20T20:23:06.773Z,98262.97
2022-08-20T20:25:22.646Z,98263.97
2022-08-20T20:27:29.524Z,98264.38
2022-08-20T20:29:40.095Z,98260.06
2022-08-20T20:31:52.178Z,98261.88
2022-08-20T20:33:59.693Z,98254.88
2022-08-20T20:36:06.855Z,98266.47
2022-08-20T20:38:17.312Z,98257.69
2022-08-20T20:40:28.118Z,98265.72
2022-08-20T20:42:33.233Z,98268.50
2022-08-20T20:44:41.701Z,98270.69
2022-08-20T20:46:50.892Z,98264.66
2022-08-20T20:48:58.255Z,98254.88
2022-08-20T20:51:03.683Z,98253.75
2022-08-20T20:53:08.622Z,98254.03
2022-08-20T20:55:24.239Z,98258.47
2022-08-20T20:57:36.448Z,98252.59
2022-08-20T20:59:48.371Z,98254.41
2022-08-20T21:01:53.403Z,98252.56
2022-08-20T21:03:58.032Z,98259.72
2022-08-20T21:06:02.910Z,98256.19
2022-08-20T21:08:10.836Z,98250.91
2022-08-20T21:10:16.333Z,98262.19
2022-08-20T21:12:22.569Z,98257.63
2022-08-20T21:14:27.417Z,98261.94
2022-08-20T21:16:35.493Z,98252.78
2022-08-20T21:18:41.119Z,98252.50
2022-08-20T21:20:47.451Z,98254.22
2022-08-20T21:22:52.491Z,98248.66
2022-08-20T21:24:57.522Z,98250.47
2022-08-20T21:27:04.040Z,98255.88
2022-08-20T21:29:11.152Z,98250.47
2022-08-20T21:31:16.135Z,98251.28
2022-08-20T21:33:23.586Z,98249.97
2022-08-20T21:35:28.885Z,98242.31
2022-08-20T21:37:33.803Z,98248.69
2022-08-20T21:39:38.662Z,98254.13
2022-08-20T21:41:44.976Z,98243.81
2022-08-20T21:43:49.827Z,98245.59
2022-08-20T21:45:54.833Z,98250.22
2022-08-20T21:48:01.244Z,98254.78
2022-08-20T21:50:11.268Z,98250.75
2022-08-20T21:52:16.690Z,98253.63
2022-08-20T21:54:22.705Z,98257.25
2022-08-20T21:56:27.625Z,98259.63
2022-08-20T21:58:36.947Z,98259.09
2022-08-20T22:00:58.214Z,98257.88
2022-08-20T22:03:03.151Z,98253.69
2022-08-20T22:05:11.511Z,98252.00
2022-08-20T22:07:17.802Z,98251.41
2022-08-20T22:09:24.887Z,98254.06
2022-08-20T22:11:30.553Z,98252.41
2022-08-20T22:13:36.862Z,98253.63
2022-08-20T22:15:42.008Z,98253.38
2022-08-20T22:17:46.638Z,98258.69
2022-08-20T22:19:51.581Z,98250.28
2022-08-20T22:21:59.531Z,98251.22
2022-08-20T22:24:07.377Z,98255.84
2022-08-20T22:26:13.135Z,98257.66
2022-08-20T22:28:21.409Z,98248.84
2022-08-20T22:30:30.390Z,98249.13
2022-08-20T22:32:51.785Z,98253.25
2022-08-20T22:34:57.139Z,98251.97
2022-08-20T22:37:05.445Z,98255.00
2022-08-20T22:39:11.016Z,98247.56
2022-08-20T22:41:15.877Z,98250.63
2022-08-20T22:43:21.841Z,98248.63
2022-08-20T22:45:29.837Z,98255.00
2022-08-20T22:47:34.646Z,98245.03
2022-08-20T22:49:42.046Z,98244.56
2022-08-20T22:51:47.587Z,98252.63
2022-08-20T22:53:58.023Z,98249.66
2022-08-20T22:56:03.014Z,98251.25
2022-08-20T22:58:08.690Z,98257.88
2022-08-20T23:00:21.069Z,98253.09
2022-08-20T23:02:29.341Z,98257.91
2022-08-20T23:04:37.768Z,98256.81
2022-08-20T23:06:43.427Z,98260.06
2022-08-20T23:08:48.340Z,98258.38
2022-08-20T23:10:56.769Z,98265.47
2022-08-20T23:13:01.677Z,98262.38
2022-08-20T23:15:06.643Z,98263.69
2022-08-20T23:17:17.664Z,98264.53
2022-08-20T23:19:24.810Z,98259.25
2022-08-20T23:21:30.012Z,98262.63
2022-08-20T23:23:34.608Z,98264.81
2022-08-20T23:25:39.496Z,98258.09
2022-08-20T23:27:49.724Z,98259.91
2022-08-20T23:29:54.551Z,98257.72
2022-08-20T23:32:00.719Z,98251.09
2022-08-20T23:34:05.611Z,98250.16
2022-08-20T23:36:13.532Z,98246.44
2022-08-20T23:38:24.197Z,98242.56
2022-08-20T23:40:31.310Z,98247.59
2022-08-20T23:42:36.359Z,98245.09
2022-08-20T23:44:43.645Z,98242.66
2022-08-20T23:46:49.233Z,98245.31
2022-08-20T23:48:57.459Z,98245.19
2022-08-20T23:51:02.443Z,98237.16
2022-08-20T23:53:08.231Z,98240.03
2022-08-20T23:55:13.396Z,98246.94
2022-08-20T23:57:21.047Z,98234.44
2022-08-20T23:59:26.062Z,98241.28
